Time;durP1;ratioP1;P1;durP2;ratioP2;P2;SDS_P1;SDS_P2;PMS_P1;PMS_P2;Temp;Humidity;BMP_temperature;BMP_pressure;BME280_temperature;BME280_humidity;BME280_pressure;Samples;Min_cycle;Max_cycle;Signal;HPM_P1;HPM_P2
2022/06/15 00:00:39;;;;;;;8.20;3.60;;;;;;;14.43;85.57;101897.16;5016651;28;20029;-46
2022/06/15 00:03:05;;;;;;;9.23;3.85;;;;;;;14.40;86.07;101900.16;5017440;28;21766;-49
2022/06/15 00:05:30;;;;;;;9.60;3.55;;;;;;;14.38;86.14;101900.31;5017766;28;20032;-48
2022/06/15 00:07:55;;;;;;;8.23;3.55;;;;;;;14.33;85.49;101891.91;5013620;28;20025;-47
2022/06/15 00:10:21;;;;;;;5.47;3.58;;;;;;;14.32;86.02;101904.50;5017853;28;20021;-45
2022/06/15 00:12:47;;;;;;;11.75;4.28;;;;;;;14.25;86.18;101891.84;5012621;28;20459;-47
2022/06/15 00:15:13;;;;;;;8.52;3.63;;;;;;;14.22;86.60;101895.69;5016084;28;20045;-50
2022/06/15 00:17:38;;;;;;;8.82;4.18;;;;;;;14.21;87.42;101891.34;5018993;28;20449;-45
2022/06/15 00:20:04;;;;;;;6.32;4.00;;;;;;;14.23;86.82;101891.19;5037400;28;20040;-49
2022/06/15 00:22:30;;;;;;;9.27;3.88;;;;;;;14.18;87.34;101894.31;5035208;28;20040;-47
2022/06/15 00:24:55;;;;;;;9.43;4.15;;;;;;;14.10;87.98;101891.59;5037219;28;20100;-48
2022/06/15 00:27:20;;;;;;;10.40;3.72;;;;;;;14.08;89.57;101885.53;5036646;28;20028;-47
2022/06/15 00:29:46;;;;;;;12.57;3.90;;;;;;;14.03;88.66;101888.69;5036976;28;20057;-45
2022/06/15 00:32:11;;;;;;;15.43;4.30;;;;;;;13.99;89.84;101882.78;5037264;28;20033;-45
2022/06/15 00:34:37;;;;;;;6.72;3.88;;;;;;;14.00;91.86;101880.94;5026386;28;20037;-46
2022/06/15 00:37:04;;;;;;;9.32;4.05;;;;;;;13.93;91.10;101872.72;5019922;28;20108;-45
2022/06/15 00:39:30;;;;;;;10.75;4.28;;;;;;;13.92;92.39;101891.66;5017118;28;20045;-45
2022/06/15 00:41:56;;;;;;;8.18;4.25;;;;;;;13.84;93.34;101881.69;5035699;28;20052;-46
2022/06/15 00:44:21;;;;;;;8.55;3.92;;;;;;;13.74;92.61;101883.63;5025731;28;20357;-46
2022/06/15 00:46:53;;;;;;;8.10;3.85;;;;;;;13.65;93.18;101882.72;5020760;28;20029;-46
2022/06/15 00:49:27;;;;;;;7.65;4.28;;;;;;;13.62;95.85;101883.03;5026263;28;20018;-46
2022/06/15 00:51:59;;;;;;;7.45;4.20;;;;;;;13.65;93.93;101874.69;5030864;28;20013;-48
2022/06/15 00:54:24;;;;;;;9.63;4.35;;;;;;;13.59;94.09;101869.91;5027284;28;20041;-46
2022/06/15 00:56:52;;;;;;;9.07;4.00;;;;;;;13.61;94.27;101870.59;5016764;28;20510;-48
2022/06/15 00:59:57;;;;;;;11.93;4.43;;;;;;;13.58;93.08;101862.88;5016185;28;20056;-47
2022/06/15 01:02:23;;;;;;;8.63;3.97;;;;;;;13.52;94.71;101867.00;4993389;28;20040;-47
2022/06/15 01:04:55;;;;;;;16.95;4.53;;;;;;;13.58;95.55;101874.47;5017357;28;20052;-48
2022/06/15 01:07:35;;;;;;;7.82;4.28;;;;;;;13.59;95.76;101867.25;5015811;28;20215;-48
2022/06/15 01:10:10;;;;;;;8.88;4.30;;;;;;;13.52;95.94;101864.34;5016538;28;20017;-46
2022/06/15 01:12:55;;;;;;;8.43;4.28;;;;;;;13.51;96.27;101867.16;5014199;28;20364;-46
2022/06/15 01:15:28;;;;;;;7.65;4.47;;;;;;;13.48;96.56;101865.66;5016165;28;20375;-48
2022/06/15 01:17:57;;;;;;;10.25;4.65;;;;;;;13.46;97.21;101864.97;5007732;28;20039;-47
2022/06/15 01:20:33;;;;;;;11.65;4.50;;;;;;;13.40;96.87;101858.38;5016837;28;20391;-46
2022/06/15 01:23:43;;;;;;;9.35;4.70;;;;;;;13.41;96.07;101853.88;5016124;28;20483;-48
2022/06/15 01:26:28;;;;;;;7.85;4.45;;;;;;;13.34;96.37;101863.50;5015000;28;20051;-48
2022/06/15 01:29:01;;;;;;;12.18;4.20;;;;;;;13.34;96.79;101852.78;5015813;28;20133;-46
2022/06/15 01:31:41;;;;;;;9.43;4.60;;;;;;;13.28;97.81;101854.22;5015834;28;20029;-46
2022/06/15 01:34:19;;;;;;;10.48;5.00;;;;;;;13.26;98.05;101864.25;5015220;28;20043;-46
2022/06/15 01:37:02;;;;;;;9.25;4.40;;;;;;;13.22;97.50;101858.34;5016525;28;20039;-48
2022/06/15 01:39:48;;;;;;;7.97;4.45;;;;;;;13.20;97.44;101854.13;5003036;28;20220;-45
2022/06/15 01:42:21;;;;;;;11.18;4.60;;;;;;;13.21;98.11;101853.16;5005717;28;20045;-47
2022/06/15 01:44:53;;;;;;;10.88;4.78;;;;;;;13.19;98.77;101860.50;5015134;28;20100;-46
2022/06/15 01:47:22;;;;;;;7.75;4.90;;;;;;;13.13;98.68;101858.44;5010676;28;20028;-50
2022/06/15 01:50:17;;;;;;;7.78;4.85;;;;;;;13.12;97.04;101860.28;5008273;28;20044;-46
2022/06/15 01:52:57;;;;;;;12.15;4.70;;;;;;;13.10;99.70;101856.03;5014180;28;20052;-45
2022/06/15 01:55:30;;;;;;;10.50;4.80;;;;;;;13.07;99.09;101841.13;5015725;28;20023;-45
2022/06/15 01:58:02;;;;;;;10.90;4.78;;;;;;;13.02;99.80;101854.16;5015443;28;20029;-44
2022/06/15 02:00:28;;;;;;;9.20;4.57;;;;;;;12.99;99.95;101849.09;5015032;28;20027;-45
2022/06/15 02:03:04;;;;;;;11.43;5.20;;;;;;;13.00;99.68;101848.06;5014965;28;20105;-45
2022/06/15 02:05:45;;;;;;;9.98;4.63;;;;;;;13.00;99.93;101842.69;5016023;28;20472;-45
2022/06/15 02:08:44;;;;;;;6.88;4.28;;;;;;;13.00;99.19;101837.34;5015560;28;20140;-45
2022/06/15 02:11:29;;;;;;;6.95;4.47;;;;;;;12.93;99.90;101839.78;4999316;28;20473;-44
2022/06/15 02:14:10;;;;;;;7.47;4.28;;;;;;;12.93;99.98;101833.59;5015949;28;20480;-45
2022/06/15 02:16:48;;;;;;;9.45;4.40;;;;;;;12.96;99.55;101830.59;5019227;28;20036;-45
2022/06/15 02:19:17;;;;;;;15.13;4.32;;;;;;;12.97;100.00;101837.66;5005298;28;20335;-45
2022/06/15 02:21:46;;;;;;;6.35;4.05;;;;;;;12.96;100.00;101827.94;5019962;28;20028;-45
2022/06/15 02:24:14;;;;;;;6.82;4.93;;;;;;;12.95;99.93;101828.91;5019695;28;20033;-45
2022/06/15 02:26:41;;;;;;;7.28;4.47;;;;;;;12.89;99.98;101833.06;5020310;28;20465;-45
2022/06/15 02:29:18;;;;;;;11.15;4.60;;;;;;;12.91;100.00;101830.22;5018516;28;20049;-45
2022/06/15 02:31:44;;;;;;;9.10;4.53;;;;;;;12.89;100.00;101827.69;5019887;28;20041;-45
2022/06/15 02:34:11;;;;;;;10.43;4.28;;;;;;;12.89;100.00;101825.00;5018630;28;20045;-45
2022/06/15 02:36:37;;;;;;;10.82;4.68;;;;;;;12.85;100.00;101819.13;5019813;28;20029;-45
2022/06/15 02:39:05;;;;;;;9.50;4.18;;;;;;;12.81;100.00;101819.56;5018887;28;20040;-47
2022/06/15 02:41:31;;;;;;;6.55;4.22;;;;;;;12.83;100.00;101829.16;5019622;28;20465;-45
2022/06/15 02:44:00;;;;;;;7.00;4.22;;;;;;;12.77;100.00;101824.38;5018761;28;20056;-45
2022/06/15 02:46:28;;;;;;;7.97;4.18;;;;;;;12.76;100.00;101832.56;5016970;28;20036;-48
2022/06/15 02:48:55;;;;;;;6.55;4.22;;;;;;;12.73;100.00;101816.78;5018527;28;20029;-46
2022/06/15 02:51:33;;;;;;;8.50;4.47;;;;;;;12.72;100.00;101825.84;5016039;28;20423;-45
2022/06/15 02:54:06;;;;;;;7.85;4.00;;;;;;;12.66;100.00;101820.09;5030437;28;20033;-48
2022/06/15 02:56:33;;;;;;;8.15;4.53;;;;;;;12.63;100.00;101815.03;5019566;28;20048;-45
2022/06/15 02:58:58;;;;;;;11.43;4.68;;;;;;;12.62;100.00;101816.00;5018876;28;20021;-44
2022/06/15 03:01:25;;;;;;;11.05;4.80;;;;;;;12.62;100.00;101810.66;5018307;28;20028;-49
2022/06/15 03:03:50;;;;;;;12.45;4.88;;;;;;;12.64;100.00;101821.22;5018572;28;20071;-47
2022/06/15 03:06:18;;;;;;;10.68;4.72;;;;;;;12.59;100.00;101823.50;5019059;28;20429;-45
2022/06/15 03:08:44;;;;;;;9.82;4.60;;;;;;;12.55;100.00;101806.91;5018929;28;20060;-45
2022/06/15 03:11:10;;;;;;;9.27;4.57;;;;;;;12.55;100.00;101820.28;5018335;28;20045;-48
2022/06/15 03:13:35;;;;;;;10.02;4.70;;;;;;;12.46;100.00;101816.69;5013922;28;20250;-45
2022/06/15 03:16:03;;;;;;;10.57;5.05;;;;;;;12.47;100.00;101814.84;5017878;28;20033;-48
2022/06/15 03:18:30;;;;;;;13.57;4.72;;;;;;;12.43;100.00;101818.81;5018124;28;20025;-45
2022/06/15 03:21:00;;;;;;;11.05;5.13;;;;;;;12.46;100.00;101813.16;5017737;28;20028;-46
2022/06/15 03:23:26;;;;;;;12.65;5.00;;;;;;;12.43;100.00;101811.63;5016944;28;20025;-43
2022/06/15 03:25:56;;;;;;;11.07;4.93;;;;;;;12.46;100.00;101811.31;5017999;28;20201;-44
2022/06/15 03:28:22;;;;;;;15.48;5.07;;;;;;;12.45;100.00;101808.78;5016641;28;20032;-46
2022/06/15 03:30:48;;;;;;;12.65;5.07;;;;;;;12.43;100.00;101816.13;5017272;28;20064;-49
2022/06/15 03:33:14;;;;;;;7.47;4.53;;;;;;;12.43;100.00;101811.63;5017735;28;20026;-45
2022/06/15 03:35:39;;;;;;;15.65;5.13;;;;;;;12.42;100.00;101812.63;5018796;28;20025;-48
2022/06/15 03:38:08;;;;;;;9.90;4.90;;;;;;;12.43;100.00;101811.63;5017874;28;20468;-45
2022/06/15 03:40:35;;;;;;;12.73;5.15;;;;;;;12.47;100.00;101812.16;5018162;28;20052;-49
2022/06/15 03:43:00;;;;;;;7.72;4.90;;;;;;;12.43;100.00;101811.63;5017078;28;20071;-46
2022/06/15 03:45:26;;;;;;;8.48;4.78;;;;;;;12.45;100.00;101812.31;5015809;28;20033;-48
2022/06/15 03:47:51;;;;;;;14.18;4.60;;;;;;;12.45;100.00;101819.50;5012241;28;20409;-46
2022/06/15 03:50:17;;;;;;;13.98;4.63;;;;;;;12.43;100.00;101816.97;5022018;28;20541;-45
2022/06/15 03:52:43;;;;;;;10.02;4.68;;;;;;;12.45;100.00;101822.19;5030767;28;20455;-45
2022/06/15 03:55:08;;;;;;;9.77;4.45;;;;;;;12.49;100.00;101819.06;5029945;28;20017;-46
2022/06/15 03:57:33;;;;;;;8.48;4.40;;;;;;;12.50;100.00;101819.91;5026182;28;20554;-45
2022/06/15 03:59:59;;;;;;;11.00;4.50;;;;;;;12.52;100.00;101819.75;5030361;28;20022;-45
2022/06/15 04:02:24;;;;;;;8.02;4.65;;;;;;;12.57;100.00;101817.47;5017511;28;20029;-46
2022/06/15 04:04:49;;;;;;;10.38;4.97;;;;;;;12.59;100.00;101826.19;5018219;28;20017;-45
2022/06/15 04:09:59;;;;;;;9.93;4.85;;;;;;;12.65;100.00;101825.59;5009111;28;20402;-47
2022/06/15 04:12:24;;;;;;;11.23;4.28;;;;;;;12.66;100.00;101821.91;5016166;28;20033;-44
2022/06/15 04:14:49;;;;;;;11.95;4.90;;;;;;;12.68;100.00;101826.13;5015915;28;20026;-48
2022/06/15 04:17:15;;;;;;;9.75;4.75;;;;;;;12.69;100.00;101825.16;5014565;28;20555;-45
2022/06/15 04:20:31;;;;;;;12.07;5.00;;;;;;;12.73;100.00;101823.00;5014578;28;20017;-45
2022/06/15 04:22:29;;;;;;;12.50;5.10;;;;;;;12.77;100.00;101820.88;5013335;28;20117;-47
2022/06/15 04:24:54;;;;;;;12.48;5.18;;;;;;;12.78;100.00;101815.38;5016375;28;20066;-46
2022/06/15 04:27:20;;;;;;;8.27;4.75;;;;;;;12.80;100.00;101820.56;5016785;28;20077;-47
2022/06/15 04:29:45;;;;;;;11.30;4.80;;;;;;;12.80;100.00;101815.22;5015143;28;20045;-45
2022/06/15 04:32:10;;;;;;;13.75;4.82;;;;;;;12.87;100.00;101817.13;5010354;28;20029;-45
2022/06/15 04:34:36;;;;;;;11.95;4.82;;;;;;;12.87;100.00;101819.78;5015426;28;20116;-46
2022/06/15 04:37:03;;;;;;;12.32;5.53;;;;;;;12.86;100.00;101826.19;5015998;28;20064;-45
2022/06/15 04:39:29;;;;;;;9.85;4.90;;;;;;;12.85;100.00;101823.66;5016644;28;20021;-46
2022/06/15 04:41:54;;;;;;;9.70;5.18;;;;;;;12.90;100.00;101828.53;5015832;28;20119;-44
2022/06/15 04:44:19;;;;;;;9.77;5.10;;;;;;;12.93;100.00;101821.00;5010678;28;20028;-47
2022/06/15 04:46:44;;;;;;;13.50;5.18;;;;;;;12.95;100.00;101819.06;5023736;28;20033;-46
2022/06/15 04:49:10;;;;;;;12.45;5.35;;;;;;;12.99;100.00;101820.41;5033089;28;20120;-47
2022/06/15 04:51:40;;;;;;;14.38;5.30;;;;;;;13.06;100.00;101816.13;5030537;28;20048;-47
2022/06/15 04:54:09;;;;;;;14.38;5.40;;;;;;;13.11;100.00;101826.41;5030406;28;20866;-47
2022/06/15 04:56:35;;;;;;;11.73;5.63;;;;;;;13.12;100.00;101827.22;5026860;28;20040;-49
2022/06/15 04:59:01;;;;;;;15.02;5.45;;;;;;;13.19;100.00;101828.31;5031539;28;20033;-47
2022/06/15 05:01:26;;;;;;;11.48;5.50;;;;;;;13.23;100.00;101824.31;5029596;28;20028;-48
2022/06/15 05:03:51;;;;;;;9.10;5.47;;;;;;;13.29;100.00;101829.06;5029697;28;20032;-47
2022/06/15 05:06:16;;;;;;;15.13;5.53;;;;;;;13.38;100.00;101825.47;5031227;28;20029;-49
2022/06/15 05:08:42;;;;;;;14.93;5.67;;;;;;;13.46;100.00;101826.53;5029800;28;20036;-46
2022/06/15 05:11:08;;;;;;;11.15;5.60;;;;;;;13.51;100.00;101835.81;5020496;28;20283;-46
2022/06/15 05:13:33;;;;;;;11.90;5.65;;;;;;;13.57;100.00;101829.81;5028618;28;20411;-48
2022/06/15 05:15:58;;;;;;;13.05;5.85;;;;;;;13.64;100.00;101829.19;5029901;28;20494;-48
2022/06/15 05:18:24;;;;;;;10.40;5.60;;;;;;;13.71;100.00;101839.13;5033309;28;20031;-48
2022/06/15 05:20:49;;;;;;;12.45;5.65;;;;;;;13.73;100.00;101838.97;5032067;28;20047;-45
2022/06/15 05:23:16;;;;;;;14.80;5.90;;;;;;;13.78;100.00;101836.66;5032275;28;20108;-46
2022/06/15 05:25:42;;;;;;;10.52;5.88;;;;;;;13.86;100.00;101833.19;5032283;28;20044;-45
2022/06/15 05:28:08;;;;;;;15.30;6.22;;;;;;;13.91;100.00;101830.88;5013213;28;20103;-48
2022/06/15 05:30:34;;;;;;;11.07;5.90;;;;;;;13.99;99.70;101828.25;5028971;28;20049;-47
2022/06/15 05:32:59;;;;;;;13.05;6.43;;;;;;;14.07;98.93;101830.13;5007983;28;20032;-48
2022/06/15 05:35:24;;;;;;;12.68;6.30;;;;;;;14.14;98.39;101837.38;5003600;28;20034;-45
2022/06/15 05:37:49;;;;;;;10.90;5.80;;;;;;;14.15;97.73;101830.16;5032381;28;20383;-50
2022/06/15 05:40:15;;;;;;;15.55;6.40;;;;;;;14.26;98.39;101831.75;5024786;28;20112;-46
2022/06/15 05:42:40;;;;;;;16.88;6.00;;;;;;;14.33;97.93;101833.59;5031532;28;20727;-45
2022/06/15 05:45:06;;;;;;;11.50;6.03;;;;;;;14.38;95.42;101835.00;5028812;28;20463;-45
2022/06/15 05:47:32;;;;;;;15.32;6.65;;;;;;;14.47;96.10;101836.69;5035134;28;20138;-49
2022/06/15 05:49:59;;;;;;;19.90;6.22;;;;;;;14.54;96.31;101835.88;5036926;28;20556;-44
2022/06/15 05:52:24;;;;;;;14.35;6.30;;;;;;;14.62;95.47;101835.09;5038732;28;20464;-46
2022/06/15 05:54:49;;;;;;;15.63;5.93;;;;;;;14.70;95.50;101845.03;5035071;28;20020;-46
2022/06/15 05:57:21;;;;;;;12.50;6.63;;;;;;;14.82;95.22;101848.25;5038991;28;20458;-45
2022/06/15 05:59:48;;;;;;;16.88;6.53;;;;;;;14.92;95.63;101836.34;5015927;28;20668;-44
2022/06/15 06:02:15;;;;;;;11.88;5.97;;;;;;;15.05;93.65;101840.38;5020178;28;20074;-46
2022/06/15 06:04:40;;;;;;;12.45;6.05;;;;;;;15.15;92.11;101838.38;5020813;28;20336;-45
2022/06/15 06:07:06;;;;;;;11.75;5.70;;;;;;;15.27;90.52;101847.84;5015078;28;20428;-45
2022/06/15 06:09:31;;;;;;;11.05;5.85;;;;;;;15.36;88.36;101840.59;5019550;28;20029;-47
2022/06/15 06:11:57;;;;;;;10.88;5.10;;;;;;;15.44;86.70;101842.44;5001858;28;20026;-45
2022/06/15 06:14:22;;;;;;;10.20;5.38;;;;;;;15.55;87.06;101839.41;5018584;28;20521;-47
2022/06/15 06:16:48;;;;;;;15.57;5.70;;;;;;;15.71;86.72;101843.91;5020587;28;20029;-46
2022/06/15 06:19:13;;;;;;;13.30;5.53;;;;;;;15.87;86.05;101843.09;5018951;28;20049;-45
2022/06/15 06:21:38;;;;;;;14.77;6.05;;;;;;;16.01;87.04;101842.38;5020276;28;20021;-49
2022/06/15 06:24:04;;;;;;;11.48;5.50;;;;;;;16.17;85.01;101840.66;5019615;28;20600;-46
2022/06/15 06:26:31;;;;;;;10.90;5.38;;;;;;;16.34;85.39;101839.56;5019548;28;20033;-45
2022/06/15 06:28:57;;;;;;;11.18;5.32;;;;;;;16.49;83.13;101841.53;5017873;28;20069;-50
2022/06/15 06:31:23;;;;;;;13.30;5.30;;;;;;;16.56;81.14;101843.38;5019991;28;20025;-47
2022/06/15 06:33:49;;;;;;;18.05;5.45;;;;;;;16.71;79.96;101842.59;5018720;28;20446;-47
2022/06/15 06:36:24;;;;;;;9.35;4.72;;;;;;;16.88;79.24;101840.69;5019654;28;20083;-48
2022/06/15 06:38:49;;;;;;;12.90;5.55;;;;;;;17.02;79.73;101842.59;5019800;28;20071;-45
2022/06/15 06:41:20;;;;;;;11.23;4.97;;;;;;;17.20;79.60;101846.88;5018895;28;20025;-49
2022/06/15 06:43:45;;;;;;;12.40;5.22;;;;;;;17.32;77.01;101851.66;5016276;28;20053;-46
2022/06/15 06:46:11;;;;;;;16.65;4.70;;;;;;;17.51;76.75;101849.47;5020493;28;20056;-47
2022/06/15 06:48:36;;;;;;;12.70;4.70;;;;;;;17.63;75.24;101850.69;5018755;28;20048;-48
2022/06/15 06:51:02;;;;;;;11.65;4.55;;;;;;;17.75;74.30;101858.38;5019470;28;20030;-46
2022/06/15 06:53:27;;;;;;;12.63;4.70;;;;;;;17.85;73.40;101850.84;5018624;28;20037;-43
2022/06/15 06:55:53;;;;;;;11.77;5.07;;;;;;;17.99;72.28;101858.16;5020329;28;20030;-48
2022/06/15 06:58:18;;;;;;;12.20;4.60;;;;;;;18.04;72.65;101857.59;5018193;28;20091;-48
2022/06/15 07:00:43;;;;;;;10.88;4.55;;;;;;;18.23;73.09;101851.63;5019515;28;20396;-44
2022/06/15 07:03:09;;;;;;;10.00;4.70;;;;;;;18.32;72.70;101852.38;5034321;28;20104;-47
2022/06/15 07:05:35;;;;;;;13.95;4.75;;;;;;;18.45;73.79;101855.25;5032030;28;20053;-47
2022/06/15 07:08:01;;;;;;;14.38;4.80;;;;;;;18.55;70.52;101854.97;5027975;28;20036;-46
2022/06/15 07:10:27;;;;;;;11.18;4.70;;;;;;;18.63;71.33;101854.88;5032523;28;20040;-46
2022/06/15 07:12:53;;;;;;;11.23;5.18;;;;;;;18.75;71.03;101867.88;5018554;28;20087;-50
2022/06/15 07:15:19;;;;;;;12.95;5.10;;;;;;;18.83;72.01;101865.09;5017451;28;20029;-46
2022/06/15 07:17:45;;;;;;;12.07;4.97;;;;;;;18.92;70.74;101871.22;5017536;28;20059;-49
2022/06/15 07:20:11;;;;;;;15.98;4.50;;;;;;;19.14;71.42;101864.78;5019467;28;20351;-45
2022/06/15 07:22:37;;;;;;;12.95;5.07;;;;;;;19.23;68.43;101868.22;5018153;28;20083;-45
2022/06/15 07:25:08;;;;;;;16.00;4.43;;;;;;;19.22;67.70;101874.66;5023672;28;20476;-46
2022/06/15 07:27:36;;;;;;;11.27;4.80;;;;;;;19.27;67.10;101866.81;5018715;28;20060;-46
2022/06/15 07:30:04;;;;;;;11.80;5.18;;;;;;;19.34;66.42;101864.16;5017220;28;20081;-43
2022/06/15 07:32:29;;;;;;;15.15;4.90;;;;;;;19.45;67.60;101868.19;5017184;28;20599;-47
2022/06/15 07:34:55;;;;;;;10.75;5.05;;;;;;;19.47;64.79;101872.41;5020413;28;20104;-45
2022/06/15 07:37:20;;;;;;;9.82;4.63;;;;;;;19.52;64.45;101871.81;5014782;28;20041;-45
2022/06/15 07:39:45;;;;;;;8.02;4.60;;;;;;;19.50;63.28;101871.16;5018693;28;20467;-50
2022/06/15 07:42:11;;;;;;;13.35;4.97;;;;;;;19.63;66.00;101867.72;5019371;28;20458;-50
2022/06/15 07:44:38;;;;;;;14.85;4.25;;;;;;;19.76;64.78;101867.88;5016846;28;20533;-47
2022/06/15 07:49:59;;;;;;;9.98;3.80;;;;;;;19.82;63.55;101867.06;5017918;28;20258;-46
2022/06/15 07:52:34;;;;;;;11.50;3.67;;;;;;;19.96;65.06;101872.59;5015806;28;20384;-49
2022/06/15 07:55:00;;;;;;;8.68;3.33;;;;;;;20.21;61.07;101864.81;5022238;28;20143;-45
2022/06/15 07:57:26;;;;;;;6.18;3.15;;;;;;;20.37;58.90;101861.78;5027173;28;20036;-46
2022/06/15 07:59:51;;;;;;;11.43;3.85;;;;;;;20.39;57.77;101867.00;5016853;28;20029;-48
2022/06/15 08:02:18;;;;;;;13.85;3.33;;;;;;;20.49;59.39;101864.75;5016222;28;20074;-45
2022/06/15 08:04:44;;;;;;;10.23;3.15;;;;;;;20.58;57.26;101868.13;5018606;28;20071;-45
2022/06/15 08:07:12;;;;;;;12.10;3.08;;;;;;;20.84;62.74;101870.97;5017203;28;20053;-48
2022/06/15 08:09:37;;;;;;;9.75;2.80;;;;;;;20.89;54.22;101870.34;5016643;28;20034;-45
2022/06/15 08:12:14;;;;;;;12.48;3.65;;;;;;;20.98;56.09;101865.59;5016732;28;20037;-46
2022/06/15 08:14:43;;;;;;;9.38;3.20;;;;;;;21.14;55.68;101867.88;5017033;28;20103;-45
2022/06/15 08:17:14;;;;;;;6.38;2.42;;;;;;;21.20;55.25;101871.69;5016253;28;20135;-49
2022/06/15 08:19:45;;;;;;;10.55;2.80;;;;;;;21.25;53.37;101866.47;5010710;28;20387;-46
2022/06/15 08:22:11;;;;;;;8.40;2.80;;;;;;;21.28;53.55;101863.31;5017134;28;20020;-45
2022/06/15 08:24:38;;;;;;;8.60;2.50;;;;;;;21.33;53.20;101865.41;5017043;28;20026;-44
2022/06/15 08:27:04;;;;;;;9.50;2.50;;;;;;;21.33;53.27;101866.22;5016928;28;20041;-44
2022/06/15 08:29:32;;;;;;;9.60;2.50;;;;;;;21.57;57.89;101867.56;5016014;28;20088;-45
2022/06/15 08:31:57;;;;;;;12.77;2.90;;;;;;;21.65;52.93;101865.66;5016801;28;20064;-44
2022/06/15 08:34:36;;;;;;;8.10;3.00;;;;;;;21.64;53.64;101861.25;5016903;28;20013;-46
2022/06/15 08:37:01;;;;;;;7.88;2.45;;;;;;;21.69;52.41;101858.75;5029067;28;20444;-46
2022/06/15 08:39:27;;;;;;;8.73;2.28;;;;;;;21.72;52.57;101866.47;5017261;28;20091;-47
2022/06/15 08:42:09;;;;;;;10.32;2.88;;;;;;;21.82;52.99;101857.91;5015764;28;20029;-48
2022/06/15 08:44:51;;;;;;;7.80;2.58;;;;;;;21.95;51.41;101863.31;5015504;28;20025;-47
2022/06/15 08:47:49;;;;;;;8.68;3.17;;;;;;;22.07;52.30;101863.50;5016237;28;20140;-45
2022/06/15 08:50:24;;;;;;;11.77;3.00;;;;;;;21.95;49.56;101856.00;5011940;28;20390;-46
2022/06/15 08:53:14;;;;;;;10.23;2.75;;;;;;;22.07;50.89;101858.91;5011784;28;20018;-45
2022/06/15 08:55:45;;;;;;;8.55;2.20;;;;;;;22.20;50.56;101860.75;5016041;28;20072;-44
2022/06/15 08:58:23;;;;;;;9.73;2.45;;;;;;;22.33;49.38;101865.34;5017249;28;20413;-46
2022/06/15 09:00:54;;;;;;;5.13;2.28;;;;;;;22.49;50.02;101864.03;5035019;28;20068;-47
2022/06/15 09:03:27;;;;;;;9.32;2.60;;;;;;;22.51;47.14;101854.59;5031204;28;20021;-46
2022/06/15 09:06:21;;;;;;;10.68;2.47;;;;;;;22.70;48.88;101863.72;5003354;28;20021;-46
2022/06/15 09:09:09;;;;;;;7.25;2.72;;;;;;;22.76;47.40;101856.59;5016546;28;20112;-48
2022/06/15 09:11:52;;;;;;;7.80;2.58;;;;;;;22.86;47.76;101859.66;5015950;28;20519;-45
2022/06/15 09:14:36;;;;;;;11.00;2.60;;;;;;;22.94;49.45;101858.56;5014134;28;20052;-47
2022/06/15 09:17:13;;;;;;;11.38;2.88;;;;;;;22.97;49.53;101860.03;5025775;28;20475;-45
2022/06/15 09:19:56;;;;;;;8.80;2.75;;;;;;;23.07;48.13;101861.22;5027272;28;20404;-46
2022/06/15 09:22:27;;;;;;;7.63;2.65;;;;;;;23.10;47.12;101862.69;5014260;28;20026;-45
2022/06/15 09:24:58;;;;;;;10.55;2.58;;;;;;;23.13;47.99;101856.78;5013287;28;20155;-45
2022/06/15 09:27:40;;;;;;;10.52;2.85;;;;;;;23.21;46.57;101863.88;5016120;28;20412;-46
2022/06/15 09:30:14;;;;;;;7.70;2.47;;;;;;;23.26;46.87;101845.78;5014917;28;20447;-44
2022/06/15 09:32:50;;;;;;;11.15;3.05;;;;;;;23.35;47.08;101850.97;5015577;28;20116;-45
2022/06/15 09:35:34;;;;;;;8.10;2.97;;;;;;;23.40;48.14;101851.13;5026315;28;20022;-47
2022/06/15 09:38:02;;;;;;;9.02;2.35;;;;;;;23.48;47.15;101853.59;5013988;28;20226;-46
2022/06/15 09:41:09;;;;;;;7.43;2.80;;;;;;;23.62;45.49;101854.28;5007419;28;20100;-45
2022/06/15 09:44:06;;;;;;;8.45;2.45;;;;;;;23.62;46.26;101863.31;5014220;28;20480;-48
2022/06/15 09:46:52;;;;;;;7.90;2.60;;;;;;;23.74;44.92;101857.97;5013780;28;20088;-49
2022/06/15 09:49:32;;;;;;;10.68;2.67;;;;;;;23.81;43.42;101855.16;5015383;28;20073;-45
2022/06/15 09:52:30;;;;;;;8.27;2.22;;;;;;;23.99;44.76;101859.84;5012770;28;20126;-47
2022/06/15 09:55:12;;;;;;;12.43;2.60;;;;;;;24.24;45.64;101861.66;4993640;28;20041;-47
2022/06/15 09:57:40;;;;;;;11.85;2.67;;;;;;;24.33;43.51;101857.59;5014017;28;20030;-51
2022/06/15 10:00:09;;;;;;;6.65;2.50;;;;;;;24.34;42.93;101854.63;5024104;28;20337;-47
2022/06/15 10:02:37;;;;;;;7.40;2.22;;;;;;;24.42;43.29;101850.72;5006781;28;20559;-45
2022/06/15 10:05:07;;;;;;;7.50;2.50;;;;;;;24.43;41.63;101852.41;5015633;28;20080;-48
2022/06/15 10:07:40;;;;;;;8.33;2.50;;;;;;;24.56;41.71;101846.00;5014793;28;20025;-48
2022/06/15 10:10:24;;;;;;;8.73;2.50;;;;;;;24.34;40.99;101843.69;5015300;28;20017;-46
2022/06/15 10:12:56;;;;;;;6.75;2.20;;;;;;;24.42;45.16;101842.53;5003357;28;20464;-47
2022/06/15 10:15:43;;;;;;;12.02;2.20;;;;;;;24.56;44.25;101838.63;5015005;28;20094;-49
2022/06/15 10:18:41;;;;;;;12.13;2.35;;;;;;;24.63;43.52;101843.19;5015068;28;20576;-49
2022/06/15 10:21:12;;;;;;;9.43;2.40;;;;;;;24.67;41.41;101847.09;4949431;28;20495;-45
2022/06/15 10:23:46;;;;;;;5.70;2.25;;;;;;;24.77;40.83;101836.44;5020342;28;20112;-49
2022/06/15 10:26:27;;;;;;;12.70;2.95;;;;;;;24.83;40.37;101841.00;5015747;28;20101;-50
2022/06/15 10:28:53;;;;;;;11.10;2.50;;;;;;;25.02;43.79;101843.66;5012973;28;20504;-46
2022/06/15 10:31:26;;;;;;;14.95;2.85;;;;;;;25.05;41.20;101845.91;5015804;28;20037;-47
2022/06/15 10:33:51;;;;;;;9.48;2.78;;;;;;;24.94;38.68;101844.81;5018090;28;20032;-49
2022/06/15 10:36:43;;;;;;;13.93;2.72;;;;;;;24.92;39.34;101838.75;5019073;28;20022;-49
2022/06/15 10:39:24;;;;;;;15.10;2.55;;;;;;;25.06;41.83;101845.69;5018636;28;20380;-48
2022/06/15 10:41:50;;;;;;;13.82;2.50;;;;;;;25.09;39.82;101836.19;5035635;28;20031;-48
2022/06/15 10:44:18;;;;;;;9.77;2.85;;;;;;;25.13;40.20;101827.25;5034509;28;20016;-50
2022/06/15 10:46:53;;;;;;;7.18;2.10;;;;;;;25.33;41.27;101839.00;5035859;28;20483;-60
2022/06/15 10:49:19;;;;;;;7.57;2.58;;;;;;;25.61;40.40;101839.13;5046318;28;20467;-50
2022/06/15 10:51:45;;;;;;;11.95;2.38;;;;;;;25.74;38.67;101842.69;5023680;28;20051;-48
2022/06/15 10:54:18;;;;;;;8.27;2.22;;;;;;;25.78;39.55;101842.00;5035997;28;20498;-49
2022/06/15 11:02:41;;;;;;;9.82;2.53;;;;;;;25.73;38.82;101830.94;5033288;28;20449;-50
2022/06/15 11:05:09;;;;;;;10.02;2.58;;;;;;;25.67;38.89;101829.13;5034551;28;20024;-49
2022/06/15 11:07:48;;;;;;;9.00;2.35;;;;;;;25.87;38.51;101824.13;5032594;28;20147;-50
2022/06/15 11:10:23;;;;;;;10.90;2.20;;;;;;;26.17;39.60;101830.53;5035494;28;20029;-51
2022/06/15 11:12:54;;;;;;;8.60;2.80;;;;;;;26.30;37.65;101830.25;5035256;28;20082;-50
2022/06/15 11:15:23;;;;;;;6.50;2.65;;;;;;;25.97;36.24;101825.47;5032550;28;20066;-49
2022/06/15 11:18:04;;;;;;;14.32;2.72;;;;;;;25.99;36.90;101824.13;5031389;28;20033;-47
2022/06/15 11:20:35;;;;;;;;;;;;;;;26.11;38.89;101818.63;5018645;28;20018;-49
2022/06/15 11:23:22;;;;;;;8.27;2.50;;;;;;;26.21;38.55;101820.75;5011231;28;19959;-49
2022/06/15 11:25:56;;;;;;;5.93;2.15;;;;;;;26.39;38.58;101817.84;5017807;28;20049;-49
2022/06/15 11:28:36;;;;;;;6.63;2.42;;;;;;;26.41;36.66;101823.09;5016099;28;20028;-51
2022/06/15 11:31:07;;;;;;;14.93;2.47;;;;;;;26.49;38.96;101813.63;5016758;28;20462;-47
2022/06/15 11:33:41;;;;;;;13.45;2.85;;;;;;;26.14;37.06;101809.13;5012266;28;20440;-50
2022/06/15 11:36:18;;;;;;;9.30;2.70;;;;;;;25.88;39.94;101805.78;5017405;28;20027;-47
2022/06/15 11:38:59;;;;;;;11.38;2.20;;;;;;;26.35;41.71;101813.09;5016873;28;20028;-48
2022/06/15 11:41:27;;;;;;;7.85;2.53;;;;;;;26.14;37.68;101814.59;5016103;28;20112;-48
2022/06/15 11:43:55;;;;;;;10.07;2.70;;;;;;;26.23;38.43;101815.88;5015591;28;20026;-49
2022/06/15 11:46:40;;;;;;;6.95;2.38;;;;;;;26.38;39.15;101818.91;5017568;28;20443;-51